Time;durP1;ratioP1;P1;durP2;ratioP2;P2;SDS_P1;SDS_P2;PMS_P1;PMS_P2;Temp;Humidity;BMP_temperature;BMP_pressure;BME280_temperature;BME280_humidity;BME280_pressure;Samples;Min_cycle;Max_cycle;Signal;HPM_P1;HPM_P2
2024/01/18 00:00:37;;;;;;;19.90;15.03;;;1.30;99.90;;;;;;5035062;28;20663;-78
2024/01/18 00:03:05;;;;;;;19.70;16.07;;;1.20;99.90;;;;;;5039819;28;20204;-78
2024/01/18 00:05:32;;;;;;;23.60;16.47;;;1.20;99.90;;;;;;5040152;28;20222;-77
2024/01/18 00:08:00;;;;;;;23.50;15.57;;;1.20;99.90;;;;;;5054890;28;20204;-78
2024/01/18 00:10:28;;;;;;;21.13;16.00;;;1.10;99.90;;;;;;5037609;28;20203;-77
2024/01/18 00:12:55;;;;;;;23.53;16.17;;;1.10;99.90;;;;;;5038230;28;20219;-78
2024/01/18 00:15:24;;;;;;;22.00;17.43;;;1.20;99.90;;;;;;5038089;28;20231;-78
2024/01/18 00:17:52;;;;;;;21.80;16.53;;;1.40;99.90;;;;;;5040655;28;20204;-78
2024/01/18 00:20:22;;;;;;;20.77;15.47;;;1.50;99.90;;;;;;5037288;28;20204;-78
2024/01/18 00:22:49;;;;;;;21.10;17.30;;;1.50;99.90;;;;;;5040935;28;20224;-78
2024/01/18 00:25:17;;;;;;;20.60;16.10;;;1.50;99.90;;;;;;5058539;28;20228;-78
2024/01/18 00:27:44;;;;;;;22.90;16.30;;;1.60;99.90;;;;;;5040354;28;20202;-78
2024/01/18 00:30:14;;;;;;;21.50;16.13;;;1.50;99.90;;;;;;5055403;28;20202;-78
2024/01/18 00:32:43;;;;;;;24.03;17.23;;;1.50;99.90;;;;;;5040159;28;20236;-78
2024/01/18 00:35:10;;;;;;;20.67;16.83;;;1.50;99.90;;;;;;5039725;28;20239;-78
2024/01/18 00:37:38;;;;;;;23.80;17.00;;;1.30;99.90;;;;;;5039344;28;20201;-78
2024/01/18 00:40:07;;;;;;;23.53;17.33;;;1.40;99.90;;;;;;5057468;28;20205;-78
2024/01/18 00:42:35;;;;;;;19.57;16.73;;;1.30;99.90;;;;;;5040504;28;20209;-79
2024/01/18 00:45:02;;;;;;;24.23;17.80;;;1.30;99.90;;;;;;5039508;28;20233;-78
2024/01/18 00:47:30;;;;;;;22.23;16.83;;;1.30;99.90;;;;;;5038878;28;20549;-78
2024/01/18 00:49:58;;;;;;;24.80;18.33;;;1.30;99.90;;;;;;5054002;28;20586;-78
2024/01/18 00:52:26;;;;;;;23.13;17.77;;;1.20;99.90;;;;;;5036346;28;20214;-78
2024/01/18 00:54:53;;;;;;;21.77;17.60;;;1.20;99.90;;;;;;5036240;28;20232;-78
2024/01/18 00:57:21;;;;;;;22.77;17.40;;;1.20;99.90;;;;;;5028195;28;20204;-78
2024/01/18 00:59:48;;;;;;;25.43;17.13;;;1.10;99.90;;;;;;5039562;28;20206;-78
2024/01/18 01:02:16;;;;;;;22.43;17.33;;;1.10;99.90;;;;;;5054584;28;20194;-78
2024/01/18 01:04:43;;;;;;;20.17;16.50;;;1.00;99.90;;;;;;5036218;28;20211;-78
2024/01/18 01:07:12;;;;;;;22.77;17.60;;;0.90;99.90;;;;;;5053256;28;20200;-77
2024/01/18 01:09:39;;;;;;;22.43;17.60;;;0.90;99.90;;;;;;5036371;28;20201;-78
2024/01/18 01:12:08;;;;;;;23.33;17.03;;;0.90;99.90;;;;;;5037263;28;20233;-78
2024/01/18 01:14:35;;;;;;;21.60;17.20;;;0.70;99.90;;;;;;5036358;28;20209;-78
2024/01/18 01:17:09;;;;;;;23.67;17.87;;;0.70;99.90;;;;;;5055291;28;20190;-78
2024/01/18 01:19:36;;;;;;;22.97;17.33;;;0.90;99.90;;;;;;5036265;28;20219;-78
2024/01/18 01:22:04;;;;;;;24.87;17.37;;;1.10;99.90;;;;;;5036552;28;20204;-78
2024/01/18 01:24:38;;;;;;;21.13;16.23;;;1.20;99.90;;;;;;5036757;28;20204;-78
2024/01/18 01:27:06;;;;;;;25.20;18.07;;;1.30;99.90;;;;;;5036734;28;20203;-78
2024/01/18 01:29:33;;;;;;;23.97;17.10;;;1.30;99.90;;;;;;5036655;28;20209;-78
2024/01/18 01:32:01;;;;;;;22.03;17.37;;;1.40;99.90;;;;;;5036194;28;20200;-78
2024/01/18 01:34:28;;;;;;;21.23;17.33;;;1.30;99.90;;;;;;5037527;28;20208;-78
2024/01/18 01:36:56;;;;;;;22.17;17.03;;;1.30;99.90;;;;;;5036880;28;20208;-78
2024/01/18 01:39:23;;;;;;;24.77;18.10;;;1.30;99.90;;;;;;5028652;28;20198;-77
2024/01/18 01:41:52;;;;;;;21.57;18.00;;;1.30;99.90;;;;;;5038705;28;20201;-78
2024/01/18 01:44:19;;;;;;;22.63;17.33;;;1.30;99.90;;;;;;5054868;28;20263;-78
2024/01/18 01:46:47;;;;;;;21.63;17.87;;;1.10;99.90;;;;;;5055149;28;20219;-78
2024/01/18 01:49:14;;;;;;;21.57;17.97;;;1.00;99.90;;;;;;5053340;28;20204;-78
2024/01/18 01:51:48;;;;;;;20.93;16.97;;;1.10;99.90;;;;;;5058165;28;20206;-78
2024/01/18 01:54:16;;;;;;;20.67;17.07;;;0.90;99.90;;;;;;5028535;28;20215;-78
2024/01/18 01:56:45;;;;;;;21.73;18.20;;;0.90;99.90;;;;;;5049621;28;20225;-78
2024/01/18 01:59:15;;;;;;;23.63;18.07;;;0.80;99.90;;;;;;5036178;28;20199;-79
2024/01/18 02:01:45;;;;;;;26.23;17.80;;;0.80;99.90;;;;;;5037283;28;20203;-78
2024/01/18 02:04:14;;;;;;;24.97;18.00;;;0.90;99.90;;;;;;5055324;28;20193;-78
2024/01/18 02:06:42;;;;;;;21.70;16.77;;;0.80;99.90;;;;;;5037069;28;20227;-78
2024/01/18 02:09:12;;;;;;;24.13;16.77;;;0.70;99.90;;;;;;5036558;28;20200;-78
2024/01/18 02:11:39;;;;;;;26.17;17.20;;;0.70;99.90;;;;;;5037105;28;20202;-78
2024/01/18 02:14:07;;;;;;;22.63;18.40;;;0.70;99.90;;;;;;5037105;28;20219;-78
2024/01/18 02:16:36;;;;;;;22.87;17.77;;;0.60;99.90;;;;;;5036631;28;20218;-78
2024/01/18 02:19:04;;;;;;;21.97;17.53;;;0.70;99.90;;;;;;5034700;28;20195;-78
2024/01/18 02:21:31;;;;;;;25.27;18.17;;;0.70;99.90;;;;;;5053585;28;20200;-78
2024/01/18 02:24:03;;;;;;;23.40;18.87;;;0.80;99.90;;;;;;5036047;28;20590;-77
2024/01/18 02:26:32;;;;;;;24.50;18.07;;;0.60;99.90;;;;;;5052733;28;20595;-78
2024/01/18 02:28:59;;;;;;;24.37;18.77;;;0.60;99.90;;;;;;5045286;28;20202;-77
2024/01/18 02:31:27;;;;;;;25.83;18.57;;;0.60;99.90;;;;;;5036356;28;20201;-78
2024/01/18 02:33:54;;;;;;;25.90;19.47;;;0.60;99.90;;;;;;5051943;28;20208;-78
2024/01/18 02:36:22;;;;;;;23.67;18.27;;;0.50;99.90;;;;;;5035445;28;20228;-78
2024/01/18 02:38:51;;;;;;;22.27;17.60;;;0.50;99.90;;;;;;5053867;28;20196;-78
2024/01/18 02:41:19;;;;;;;22.77;18.27;;;0.50;99.90;;;;;;5034832;28;20202;-78
2024/01/18 02:43:48;;;;;;;27.77;19.13;;;0.70;99.90;;;;;;5035370;28;20212;-78
2024/01/18 02:46:17;;;;;;;26.23;18.97;;;0.70;99.90;;;;;;5048066;28;20240;-78
2024/01/18 02:48:45;;;;;;;23.50;17.80;;;0.70;99.90;;;;;;5053121;28;20200;-77
2024/01/18 02:51:12;;;;;;;24.20;18.40;;;0.70;99.90;;;;;;5035904;28;20556;-78
2024/01/18 02:53:40;;;;;;;24.53;17.83;;;0.70;99.90;;;;;;5053293;28;20576;-78
2024/01/18 02:56:07;;;;;;;20.83;18.00;;;0.70;99.90;;;;;;5035791;28;20222;-78
2024/01/18 02:58:35;;;;;;;23.13;17.47;;;0.60;99.90;;;;;;5053962;28;20218;-78
2024/01/18 03:01:04;;;;;;;26.30;18.80;;;0.70;99.90;;;;;;5040302;28;20208;-77
2024/01/18 03:03:31;;;;;;;22.77;18.27;;;0.70;99.90;;;;;;5042450;28;20188;-76
2024/01/18 03:06:00;;;;;;;26.20;18.10;;;0.70;99.90;;;;;;5044094;28;20220;-77
2024/01/18 03:08:27;;;;;;;23.40;17.93;;;0.70;99.90;;;;;;5035916;28;20558;-76
2024/01/18 03:10:55;;;;;;;25.10;18.80;;;0.70;99.90;;;;;;5043516;28;20202;-76
2024/01/18 03:13:22;;;;;;;21.23;18.63;;;0.80;99.90;;;;;;5028701;28;20204;-77
2024/01/18 03:15:49;;;;;;;24.30;19.43;;;0.80;99.90;;;;;;5052172;28;20216;-76
2024/01/18 03:18:18;;;;;;;23.23;18.43;;;1.10;99.90;;;;;;5052933;28;20678;-76
2024/01/18 03:20:46;;;;;;;27.10;19.00;;;1.10;99.90;;;;;;5036776;28;20215;-76
2024/01/18 03:23:14;;;;;;;25.50;18.67;;;1.20;99.90;;;;;;5052091;28;20202;-76
2024/01/18 03:25:41;;;;;;;28.40;19.47;;;1.20;99.90;;;;;;5055765;28;20223;-76
2024/01/18 03:28:08;;;;;;;25.67;19.70;;;1.30;99.90;;;;;;5036164;28;20215;-76
2024/01/18 03:30:36;;;;;;;25.30;19.73;;;1.50;99.90;;;;;;5036050;28;20194;-78
2024/01/18 03:33:04;;;;;;;27.20;18.57;;;1.50;99.90;;;;;;5038483;28;20201;-79
2024/01/18 03:35:32;;;;;;;24.93;19.30;;;1.30;99.90;;;;;;5054089;28;20231;-79
2024/01/18 03:37:59;;;;;;;26.40;19.73;;;1.30;99.90;;;;;;5052546;28;20207;-77
2024/01/18 03:40:26;;;;;;;24.37;19.07;;;1.40;99.90;;;;;;5051917;28;20200;-77
2024/01/18 03:42:54;;;;;;;26.30;19.60;;;1.30;99.90;;;;;;5036529;28;20213;-77
2024/01/18 03:45:21;;;;;;;24.90;19.43;;;1.30;99.90;;;;;;5036013;28;20229;-77
2024/01/18 03:47:48;;;;;;;25.90;20.03;;;1.30;99.90;;;;;;5036362;28;20199;-77
2024/01/18 03:50:16;;;;;;;29.07;20.60;;;1.10;99.90;;;;;;5052919;28;20194;-76
2024/01/18 03:52:45;;;;;;;28.20;20.43;;;1.20;99.90;;;;;;5036627;28;20206;-77
2024/01/18 03:55:12;;;;;;;23.77;19.30;;;1.20;99.90;;;;;;5052747;28;20227;-77
2024/01/18 03:57:40;;;;;;;25.40;19.57;;;1.00;99.90;;;;;;5039473;28;20216;-77
2024/01/18 04:00:11;;;;;;;28.27;19.93;;;0.80;99.90;;;;;;5056430;28;20192;-77
2024/01/18 04:02:39;;;;;;;28.00;20.53;;;0.80;99.90;;;;;;5057234;28;20194;-77
2024/01/18 04:05:07;;;;;;;27.47;20.17;;;0.70;99.90;;;;;;5053767;28;20219;-76
2024/01/18 04:07:35;;;;;;;24.80;19.17;;;0.70;99.90;;;;;;5060900;28;20222;-77
2024/01/18 04:10:07;;;;;;;26.43;19.90;;;0.80;99.90;;;;;;5058869;28;20209;-77
2024/01/18 04:12:35;;;;;;;26.93;20.07;;;0.90;99.90;;;;;;5077005;28;20181;-77
2024/01/18 04:15:03;;;;;;;25.60;20.00;;;1.10;99.90;;;;;;5057618;28;20237;-77
2024/01/18 04:17:30;;;;;;;23.87;20.37;;;1.10;99.90;;;;;;5072398;28;20209;-77
2024/01/18 04:19:57;;;;;;;27.60;21.37;;;1.10;99.90;;;;;;5072050;28;20196;-77
2024/01/18 04:22:25;;;;;;;28.07;20.83;;;1.00;99.90;;;;;;5034968;28;20215;-77
2024/01/18 04:24:53;;;;;;;24.53;20.17;;;1.10;99.90;;;;;;5018948;28;20225;-77
2024/01/18 04:27:22;;;;;;;23.30;19.90;;;1.10;99.90;;;;;;5036685;28;20189;-77
2024/01/18 04:29:49;;;;;;;25.00;19.80;;;1.10;99.90;;;;;;5036869;28;20196;-78
2024/01/18 04:32:17;;;;;;;29.23;19.93;;;1.10;99.90;;;;;;5018317;28;20211;-77
2024/01/18 04:34:44;;;;;;;23.27;20.00;;;1.30;99.90;;;;;;5034607;28;20701;-77
2024/01/18 04:37:12;;;;;;;27.27;20.00;;;1.20;99.90;;;;;;5055224;28;20197;-77
2024/01/18 04:39:39;;;;;;;25.67;20.53;;;1.30;99.90;;;;;;5033729;28;20562;-77
2024/01/18 04:42:09;;;;;;;26.30;21.27;;;1.20;99.90;;;;;;5052550;28;20188;-77
2024/01/18 04:44:39;;;;;;;25.73;19.60;;;1.30;99.90;;;;;;5071648;28;20206;-77
2024/01/18 04:47:07;;;;;;;21.77;18.97;;;1.10;99.90;;;;;;5039309;28;20201;-77
2024/01/18 04:49:34;;;;;;;26.77;20.90;;;1.10;99.90;;;;;;5059236;28;20195;-77
2024/01/18 04:52:02;;;;;;;26.13;20.40;;;1.20;99.90;;;;;;5041760;28;20203;-77
2024/01/18 04:54:29;;;;;;;27.57;20.43;;;1.10;99.90;;;;;;5039150;28;20438;-77
2024/01/18 04:56:57;;;;;;;24.90;21.03;;;0.90;99.90;;;;;;5038310;28;20203;-77
2024/01/18 04:59:24;;;;;;;27.60;20.90;;;0.80;99.90;;;;;;5059979;28;20559;-77
2024/01/18 05:01:54;;;;;;;26.00;20.93;;;0.80;99.90;;;;;;5042745;28;20693;-77
2024/01/18 05:04:22;;;;;;;25.07;21.47;;;0.80;99.90;;;;;;5037672;28;20199;-77
2024/01/18 05:06:49;;;;;;;27.00;20.90;;;0.70;99.90;;;;;;5037698;28;20215;-77
2024/01/18 05:09:17;;;;;;;27.20;21.07;;;0.50;99.90;;;;;;5037660;28;20209;-77
2024/01/18 05:11:44;;;;;;;29.70;22.47;;;0.70;99.90;;;;;;5037576;28;20207;-77
2024/01/18 05:14:12;;;;;;;29.60;21.47;;;0.40;99.90;;;;;;5055688;28;20205;-77
2024/01/18 05:16:40;;;;;;;26.47;20.90;;;0.50;99.90;;;;;;5037558;28;20225;-77
2024/01/18 05:19:09;;;;;;;25.93;20.63;;;0.40;99.90;;;;;;5037184;28;20697;-77
2024/01/18 05:21:36;;;;;;;26.43;21.30;;;0.50;99.90;;;;;;5051976;28;20203;-77
2024/01/18 05:24:05;;;;;;;28.80;22.13;;;0.60;99.90;;;;;;5038273;28;20195;-77
2024/01/18 05:26:33;;;;;;;28.63;21.87;;;0.40;99.90;;;;;;5040150;28;20238;-77
2024/01/18 05:29:00;;;;;;;31.60;22.87;;;0.40;99.90;;;;;;5055305;28;20206;-77
2024/01/18 05:31:28;;;;;;;26.93;21.00;;;0.50;99.90;;;;;;5055578;28;20196;-77
2024/01/18 05:33:56;;;;;;;27.10;21.57;;;0.40;99.90;;;;;;5037494;28;20207;-77
2024/01/18 05:36:24;;;;;;;28.50;22.13;;;0.50;99.90;;;;;;5055280;28;20698;-77
2024/01/18 05:38:52;;;;;;;28.97;21.87;;;0.40;99.90;;;;;;5036325;28;20200;-77
2024/01/18 05:41:20;;;;;;;28.73;20.27;;;0.40;99.90;;;;;;5037263;28;20211;-77
2024/01/18 05:43:47;;;;;;;29.10;21.23;;;0.40;99.90;;;;;;5055022;28;20190;-77
2024/01/18 05:46:14;;;;;;;27.87;21.80;;;0.40;99.90;;;;;;5036944;28;20223;-77
2024/01/18 05:48:42;;;;;;;25.57;20.37;;;0.30;99.90;;;;;;5036221;28;20208;-78
2024/01/18 05:51:09;;;;;;;28.20;20.17;;;0.40;99.90;;;;;;5037302;28;20207;-77
2024/01/18 05:53:39;;;;;;;25.13;20.33;;;0.40;99.90;;;;;;5055285;28;20180;-77
2024/01/18 05:56:07;;;;;;;25.27;20.63;;;0.20;99.90;;;;;;5055011;28;20220;-77
2024/01/18 05:58:34;;;;;;;26.40;20.47;;;0.40;99.90;;;;;;5030876;28;20203;-77
2024/01/18 06:01:02;;;;;;;24.07;20.03;;;0.40;99.90;;;;;;5036316;28;20196;-76
2024/01/18 06:03:32;;;;;;;21.47;14.43;;;0.40;99.90;;;;;;5034531;28;20283;-76
2024/01/18 06:06:04;;;;;;;27.30;20.03;;;1.00;99.90;;;;;;5053545;28;20208;-76
2024/01/18 06:08:31;;;;;;;25.40;20.53;;;2.00;99.90;;;;;;5030577;28;20581;-77
2024/01/18 06:11:01;;;;;;;31.23;21.70;;;1.40;99.90;;;;;;5050387;28;20204;-77
2024/01/18 06:13:50;;;;;;;36.07;28.50;;;0.90;99.90;;;;;;5038673;28;20215;-78
2024/01/18 06:16:19;;;;;;;36.27;25.10;;;0.50;99.90;;;;;;5050961;28;20339;-78
2024/01/18 06:18:46;;;;;;;30.60;22.63;;;0.50;99.90;;;;;;5036208;28;20678;-78
2024/01/18 06:21:14;;;;;;;26.63;22.13;;;0.30;99.90;;;;;;5036127;28;20216;-78
2024/01/18 06:23:42;;;;;;;26.87;21.80;;;0.30;99.90;;;;;;5036102;28;20568;-77
2024/01/18 06:26:12;;;;;;;29.07;22.73;;;0.20;99.90;;;;;;5048700;28;20216;-77
2024/01/18 06:28:39;;;;;;;31.10;22.97;;;0.30;99.90;;;;;;5032800;28;20571;-78
2024/01/18 06:31:14;;;;;;;29.33;22.30;;;0.60;99.90;;;;;;5025654;28;20552;-78
2024/01/18 06:33:42;;;;;;;29.23;22.93;;;0.70;99.90;;;;;;5033570;28;20203;-78
2024/01/18 06:36:11;;;;;;;26.37;22.17;;;0.70;99.90;;;;;;5036784;28;20232;-78
2024/01/18 06:39:03;;;;;;;29.67;20.77;;;0.60;99.90;;;;;;5054428;28;20203;-78
2024/01/18 06:41:32;;;;;;;27.73;21.70;;;0.50;99.90;;;;;;5032398;28;20674;-78
2024/01/18 06:44:00;;;;;;;31.03;22.00;;;0.40;99.90;;;;;;5015996;28;20202;-78
2024/01/18 06:46:28;;;;;;;26.93;22.20;;;0.30;99.90;;;;;;5033602;28;20217;-78
2024/01/18 06:49:20;;;;;;;29.30;22.50;;;0.20;99.90;;;;;;5033830;28;20168;-77
2024/01/18 06:51:48;;;;;;;29.40;21.60;;;0.10;99.90;;;;;;5049291;28;20196;-77
2024/01/18 06:54:17;;;;;;;27.57;21.80;;;0.10;99.90;;;;;;5053654;28;20193;-78
2024/01/18 06:56:47;;;;;;;29.70;22.67;;;0.10;99.90;;;;;;5042479;28;20585;-78
2024/01/18 06:59:15;;;;;;;28.70;21.67;;;0.20;99.90;;;;;;5052737;28;20201;-80
2024/01/18 07:01:42;;;;;;;26.20;21.53;;;0.20;99.90;;;;;;5035556;28;20281;-79
2024/01/18 07:04:10;;;;;;;26.40;20.63;;;0.10;99.90;;;;;;5031927;28;20206;-78
2024/01/18 07:06:37;;;;;;;26.97;19.80;;;0.00;99.90;;;;;;5053896;28;20210;-79
2024/01/18 07:09:06;;;;;;;28.83;20.77;;;0.00;99.90;;;;;;5036724;28;20199;-79
2024/01/18 07:11:33;;;;;;;28.70;21.07;;;-0.10;99.90;;;;;;5040154;28;20208;-78
2024/01/18 07:14:02;;;;;;;29.27;22.17;;;-0.10;99.90;;;;;;5026016;28;20203;-78
2024/01/18 07:16:29;;;;;;;25.73;20.23;;;-0.10;99.90;;;;;;5042549;28;20290;-78
2024/01/18 07:18:57;;;;;;;30.80;21.87;;;0.00;99.90;;;;;;5035287;28;20200;-78
2024/01/18 07:21:24;;;;;;;27.27;21.23;;;-0.10;99.90;;;;;;5032360;28;20229;-79
2024/01/18 07:23:51;;;;;;;27.97;20.93;;;-0.10;99.90;;;;;;5035974;28;20537;-79
2024/01/18 07:26:28;;;;;;;29.70;21.73;;;-0.30;99.90;;;;;;5058701;28;20214;-79
2024/01/18 07:28:55;;;;;;;25.87;20.27;;;-0.30;99.90;;;;;;5020309;28;20210;-76
2024/01/18 07:31:24;;;;;;;28.63;20.83;;;0.00;99.90;;;;;;5055091;28;20184;-76
2024/01/18 07:33:52;;;;;;;27.73;21.40;;;0.30;99.90;;;;;;5055368;28;20191;-80
2024/01/18 07:36:19;;;;;;;26.67;21.20;;;0.30;99.90;;;;;;5047263;28;20239;-79
2024/01/18 07:38:47;;;;;;;27.43;20.50;;;-0.20;99.90;;;;;;5045469;28;20202;-79
2024/01/18 07:41:14;;;;;;;27.57;21.33;;;-0.30;99.90;;;;;;5045177;28;20649;-78
2024/01/18 07:43:41;;;;;;;31.03;21.57;;;-0.30;99.90;;;;;;5043141;28;20206;-79
2024/01/18 07:46:09;;;;;;;27.27;20.77;;;-0.30;99.90;;;;;;5041712;28;20207;-79
2024/01/18 07:48:38;;;;;;;24.63;20.60;;;-0.20;99.90;;;;;;5048692;28;20201;-79
2024/01/18 07:51:05;;;;;;;24.80;20.27;;;-0.10;99.90;;;;;;5039772;28;20209;-78
2024/01/18 07:53:32;;;;;;;25.60;21.67;;;-0.20;99.90;;;;;;5048135;28;20198;-78
2024/01/18 07:56:00;;;;;;;31.57;22.53;;;-0.40;99.90;;;;;;5046777;28;20211;-79
2024/01/18 07:58:27;;;;;;;31.47;22.10;;;-0.40;99.90;;;;;;5061873;28;20216;-79
2024/01/18 08:00:55;;;;;;;27.80;22.73;;;-0.30;99.90;;;;;;5045433;28;20202;-79
2024/01/18 08:03:22;;;;;;;31.57;22.90;;;-0.30;99.90;;;;;;5062279;28;20198;-79
2024/01/18 08:05:51;;;;;;;30.03;23.03;;;-0.40;99.90;;;;;;5042606;28;20215;-79
2024/01/18 08:08:19;;;;;;;30.33;23.87;;;-0.60;99.90;;;;;;5062990;28;20199;-79
2024/01/18 08:10:46;;;;;;;29.63;23.07;;;-0.50;99.90;;;;;;5054302;28;20202;-79
2024/01/18 08:13:18;;;;;;;30.67;24.17;;;-0.50;99.90;;;;;;5044216;28;20202;-79
2024/01/18 08:15:46;;;;;;;32.43;24.37;;;-0.60;99.90;;;;;;5046490;28;20230;-79
2024/01/18 08:18:15;;;;;;;32.27;24.33;;;-0.40;99.90;;;;;;5046314;28;20218;-80
2024/01/18 08:20:43;;;;;;;30.27;22.47;;;-0.30;99.90;;;;;;5055651;28;20548;-79
2024/01/18 08:23:12;;;;;;;29.33;23.57;;;-0.40;99.90;;;;;;5050080;28;20186;-79
2024/01/18 08:25:41;;;;;;;30.60;23.03;;;-0.40;99.90;;;;;;5050126;28;20848;-77
2024/01/18 08:28:13;;;;;;;27.67;22.63;;;-0.40;99.90;;;;;;5047378;28;20199;-78
2024/01/18 08:30:41;;;;;;;31.40;24.30;;;-0.40;99.90;;;;;;5037145;28;20204;-78
2024/01/18 08:33:09;;;;;;;31.07;25.47;;;-0.30;99.90;;;;;;5063112;28;20250;-80
2024/01/18 08:35:37;;;;;;;32.47;24.07;;;-0.20;99.90;;;;;;5041110;28;20232;-80
2024/01/18 08:38:05;;;;;;;35.60;23.90;;;-0.20;99.90;;;;;;5043395;28;20201;-81
2024/01/18 08:40:35;;;;;;;32.53;24.63;;;-0.10;99.90;;;;;;5059762;28;20208;-79
2024/01/18 08:43:02;;;;;;;31.83;24.67;;;-0.10;99.90;;;;;;5036096;28;20206;-80
2024/01/18 08:45:30;;;;;;;31.23;24.03;;;0.00;99.90;;;;;;5058332;28;20218;-81
2024/01/18 08:47:58;;;;;;;30.83;24.47;;;0.00;99.90;;;;;;5058764;28;20202;-81
2024/01/18 08:50:25;;;;;;;32.40;24.67;;;0.10;99.90;;;;;;5041713;28;20210;-81
2024/01/18 08:52:53;;;;;;;33.40;25.00;;;0.40;99.90;;;;;;5056098;28;20184;-79
2024/01/18 08:55:21;;;;;;;33.30;25.87;;;0.30;99.90;;;;;;5057371;28;20226;-80
2024/01/18 08:57:50;;;;;;;31.27;25.07;;;0.50;99.90;;;;;;5042266;28;20222;-81
2024/01/18 09:00:18;;;;;;;29.13;25.00;;;0.40;99.90;;;;;;5042160;28;20199;-80
2024/01/18 09:02:46;;;;;;;32.20;25.37;;;0.20;99.90;;;;;;5059641;28;20202;-79
2024/01/18 09:05:13;;;;;;;31.33;25.97;;;0.20;99.90;;;;;;5055820;28;20242;-80
2024/01/18 09:07:41;;;;;;;36.47;27.87;;;0.60;99.90;;;;;;5037601;28;20199;-80
2024/01/18 09:10:09;;;;;;;35.00;26.17;;;0.80;99.90;;;;;;5027541;28;20209;-80
2024/01/18 09:12:37;;;;;;;36.07;27.53;;;1.00;99.90;;;;;;5036916;28;20217;-80
2024/01/18 09:15:07;;;;;;;31.37;25.63;;;1.00;99.90;;;;;;5036537;28;20218;-81
2024/01/18 09:17:34;;;;;;;32.93;25.37;;;1.00;99.90;;;;;;5055862;28;20223;-81
2024/01/18 09:20:04;;;;;;;38.60;27.23;;;1.10;99.90;;;;;;5031823;28;20208;-81
2024/01/18 09:22:31;;;;;;;32.17;26.27;;;1.10;99.90;;;;;;5036837;28;20209;-81
2024/01/18 09:24:59;;;;;;;37.27;25.23;;;0.90;99.90;;;;;;5036787;28;20231;-81
2024/01/18 09:27:37;;;;;;;30.90;25.17;;;1.00;99.90;;;;;;5037082;28;20209;-81
2024/01/18 09:30:09;;;;;;;32.07;25.87;;;1.00;99.90;;;;;;5054043;28;20196;-81
2024/01/18 09:32:39;;;;;;;34.57;26.10;;;1.20;99.90;;;;;;5029896;28;20204;-81
2024/01/18 09:35:06;;;;;;;29.97;25.87;;;1.50;99.90;;;;;;5036040;28;20231;-81
2024/01/18 09:37:34;;;;;;;31.93;25.50;;;1.40;99.90;;;;;;5035988;28;20705;-81
2024/01/18 09:40:04;;;;;;;33.60;27.10;;;1.40;99.90;;;;;;5036281;28;20203;-81
2024/01/18 09:42:33;;;;;;;31.67;25.03;;;1.50;99.90;;;;;;5034462;28;20207;-81
2024/01/18 09:45:06;;;;;;;35.07;24.80;;;1.70;99.90;;;;;;5036581;28;20584;-81
2024/01/18 09:47:36;;;;;;;28.57;24.07;;;1.70;99.90;;;;;;5042013;28;20196;-80
2024/01/18 09:50:04;;;;;;;27.70;22.43;;;1.80;99.90;;;;;;5035534;28;20220;-81
2024/01/18 09:52:33;;;;;;;29.63;24.07;;;1.80;99.90;;;;;;5049316;28;20665;-80
2024/01/18 09:55:00;;;;;;;29.23;22.00;;;1.70;99.90;;;;;;5030746;28;20218;-81
2024/01/18 09:57:35;;;;;;;29.77;22.53;;;1.80;99.90;;;;;;5041814;28;20223;-80
2024/01/18 10:00:04;;;;;;;27.03;21.00;;;2.00;99.90;;;;;;5027177;28;20209;-80
2024/01/18 10:02:39;;;;;;;29.83;21.73;;;2.00;99.90;;;;;;5053619;28;20197;-80
2024/01/18 10:05:08;;;;;;;28.37;21.93;;;2.00;99.90;;;;;;5037512;28;20233;-80
2024/01/18 10:07:35;;;;;;;27.03;20.43;;;2.20;99.90;;;;;;5035522;28;20194;-80
2024/01/18 10:10:03;;;;;;;24.60;20.87;;;1.80;99.90;;;;;;5034400;28;20202;-79
2024/01/18 10:12:36;;;;;;;28.27;21.60;;;1.80;99.90;;;;;;5035917;28;20204;-79
2024/01/18 10:15:06;;;;;;;23.40;19.70;;;2.20;99.90;;;;;;5037265;28;20218;-78
2024/01/18 10:17:34;;;;;;;25.97;19.33;;;2.00;99.90;;;;;;5036358;28;20246;-79
2024/01/18 10:20:04;;;;;;;25.40;20.63;;;1.90;99.90;;;;;;5036031;28;20209;-80
2024/01/18 10:22:32;;;;;;;28.27;19.53;;;2.20;99.90;;;;;;5036337;28;20198;-80
2024/01/18 10:25:00;;;;;;;23.50;18.80;;;2.60;99.90;;;;;;5055627;28;20226;-79
2024/01/18 10:27:30;;;;;;;25.77;18.07;;;2.70;99.90;;;;;;5048861;28;20214;-78
2024/01/18 10:29:58;;;;;;;22.03;17.73;;;2.90;99.90;;;;;;5028672;28;20198;-79
2024/01/18 10:32:31;;;;;;;21.37;16.60;;;2.90;99.90;;;;;;5037250;28;20214;-79
2024/01/18 10:34:59;;;;;;;21.13;16.10;;;2.70;99.90;;;;;;5036710;28;20237;-78
2024/01/18 10:37:28;;;;;;;19.53;14.93;;;3.00;99.90;;;;;;5036098;28;20219;-76
2024/01/18 10:39:55;;;;;;;19.83;15.30;;;3.20;99.90;;;;;;5036806;28;20236;-78
2024/01/18 10:42:23;;;;;;;18.47;14.97;;;3.10;99.90;;;;;;5055139;28;20199;-79
2024/01/18 10:44:52;;;;;;;18.17;15.97;;;3.40;99.90;;;;;;5035304;28;20214;-79
2024/01/18 10:47:19;;;;;;;20.13;14.13;;;3.20;99.90;;;;;;5036973;28;20652;-78
2024/01/18 10:49:46;;;;;;;17.27;14.07;;;3.30;99.90;;;;;;5053423;28;20209;-78
2024/01/18 10:52:14;;;;;;;16.63;13.90;;;3.60;99.90;;;;;;5038127;28;20202;-79
2024/01/18 10:54:44;;;;;;;18.93;14.37;;;3.80;99.90;;;;;;5054451;28;20555;-81
2024/01/18 10:57:12;;;;;;;18.27;15.47;;;4.20;99.90;;;;;;5031715;28;20211;-79
2024/01/18 10:59:39;;;;;;;15.93;13.83;;;4.70;99.90;;;;;;5036386;28;20208;-79
2024/01/18 11:02:08;;;;;;;16.33;14.40;;;5.10;99.90;;;;;;5056284;28;20201;-79
2024/01/18 11:04:37;;;;;;;17.90;14.20;;;5.10;99.90;;;;;;5057310;28;20201;-79
2024/01/18 11:07:06;;;;;;;18.67;13.63;;;5.60;99.90;;;;;;5034291;28;20197;-79
2024/01/18 11:09:36;;;;;;;16.63;12.10;;;5.80;99.90;;;;;;5040472;28;20204;-78
2024/01/18 11:12:07;;;;;;;14.13;10.77;;;5.00;99.90;;;;;;5042298;28;20198;-76
2024/01/18 11:14:34;;;;;;;14.00;11.80;;;4.80;99.90;;;;;;5051813;28;20197;-76
2024/01/18 11:17:11;;;;;;;13.17;10.33;;;6.50;99.90;;;;;;5035002;28;20221;-76
2024/01/18 11:19:43;;;;;;;15.27;10.27;;;7.70;99.90;;;;;;5035849;28;20213;-79
2024/01/18 11:22:12;;;;;;;15.40;10.70;;;6.80;99.20;;;;;;5038983;28;20206;-79
2024/01/18 11:24:39;;;;;;;13.67;9.50;;;7.20;99.50;;;;;;5058297;28;20207;-80
2024/01/18 11:27:22;;;;;;;13.13;10.13;;;6.90;98.30;;;;;;5040533;28;20195;-79
2024/01/18 11:29:50;;;;;;;12.10;8.27;;;7.20;99.10;;;;;;5057286;28;20210;-78
2024/01/18 11:32:19;;;;;;;9.40;7.57;;;7.50;98.40;;;;;;5040326;28;20206;-77
2024/01/18 11:34:49;;;;;;;9.47;8.20;;;6.80;98.60;;;;;;5040694;28;20210;-79
2024/01/18 11:37:18;;;;;;;9.30;7.27;;;7.10;97.50;;;;;;5037373;28;20237;-79
2024/01/18 11:39:54;;;;;;;10.03;6.97;;;6.20;99.20;;;;;;5057422;28;20206;-80
2024/01/18 11:42:24;;;;;;;7.03;6.33;;;7.60;98.60;;;;;;5048955;28;20209;-80
2024/01/18 11:44:56;;;;;;;9.23;6.00;;;7.70;97.00;;;;;;5041791;28;20229;-79
2024/01/18 11:47:25;;;;;;;7.20;5.97;;;6.90;96.80;;;;;;5046826;28;20660;-80
2024/01/18 11:49:52;;;;;;;7.97;6.67;;;7.90;97.00;;;;;;5046059;28;20207;-80
2024/01/18 11:52:22;;;;;;;8.50;6.80;;;8.70;95.30;;;;;;5065449;28;20209;-80
2024/01/18 11:54:52;;;;;;;10.50;6.50;;;9.40;93.30;;;;;;5038694;28;20219;-80
2024/01/18 11:57:20;;;;;;;8.20;5.93;;;9.10;93.60;;;;;;5058943;28;20214;-80
2024/01/18 11:59:49;;;;;;;8.40;5.37;;;9.10;93.20;;;;;;5041426;28;20203;-80
2024/01/18 12:02:17;;;;;;;6.70;5.43;;;9.00;93.10;;;;;;5041638;28;20559;-80
2024/01/18 12:04:45;;;;;;;6.93;5.50;;;9.30;92.20;;;;;;5059782;28;20190;-79
2024/01/18 12:07:13;;;;;;;8.77;5.70;;;10.20;90.50;;;;;;5050099;28;20568;-80
2024/01/18 12:09:41;;;;;;;6.03;5.37;;;10.80;88.30;;;;;;5063352;28;20210;-80
2024/01/18 12:12:09;;;;;;;6.33;5.30;;;8.90;90.00;;;;;;5043742;28;20210;-79
2024/01/18 12:14:41;;;;;;;6.30;5.60;;;9.60;87.50;;;;;;5042423;28;20206;-80
2024/01/18 12:17:10;;;;;;;6.63;5.33;;;9.40;90.10;;;;;;5060853;28;20190;-79
2024/01/18 12:19:40;;;;;;;9.23;5.23;;;10.40;87.80;;;;;;5059178;28;20194;-81
2024/01/18 12:22:09;;;;;;;6.40;4.40;;;11.00;84.70;;;;;;5043036;28;20241;-80
2024/01/18 12:24:37;;;;;;;6.60;4.90;;;10.30;84.70;;;;;;5040196;28;20213;-81
2024/01/18 12:27:05;;;;;;;5.37;4.20;;;10.80;82.50;;;;;;5043458;28;20653;-79
2024/01/18 12:29:35;;;;;;;5.67;4.57;;;10.70;82.10;;;;;;5041115;28;20263;-79
2024/01/18 12:32:03;;;;;;;4.57;3.13;;;10.30;79.50;;;;;;5043464;28;20225;-79
2024/01/18 12:34:33;;;;;;;5.37;3.77;;;8.60;82.50;;;;;;5039079;28;20194;-79
2024/01/18 12:37:01;;;;;;;4.47;3.63;;;9.70;82.10;;;;;;5048083;28;20207;-80
2024/01/18 12:39:28;;;;;;;4.83;3.50;;;11.20;80.10;;;;;;5036093;28;20549;-80
2024/01/18 12:41:56;;;;;;;4.23;3.00;;;10.20;77.20;;;;;;5025812;28;20203;-80
2024/01/18 12:44:24;;;;;;;4.30;3.40;;;9.00;79.60;;;;;;5039332;28;20213;-80